Time;durP1;ratioP1;P1;durP2;ratioP2;P2;SDS_P1;SDS_P2;PMS_P1;PMS_P2;Temp;Humidity;BMP_temperature;BMP_pressure;BME280_temperature;BME280_humidity;BME280_pressure;Samples;Min_cycle;Max_cycle;Signal;HPM_P1;HPM_P2
2020/12/13 00:02:33;;;;;;;51.93;28.10;;;5.00;99.90;;;;;;5026113;28;20630;-68
2020/12/13 00:05:17;;;;;;;47.77;26.30;;;4.90;99.90;;;;;;5035077;28;20717;-67
2020/12/13 00:08:02;;;;;;;48.60;26.03;;;4.90;99.90;;;;;;5030810;28;20647;-68
2020/12/13 00:10:47;;;;;;;49.23;26.07;;;4.90;99.90;;;;;;5015778;28;20627;-68
2020/12/13 00:13:31;;;;;;;44.50;26.30;;;4.90;99.90;;;;;;5024609;28;20615;-67
2020/12/13 00:16:16;;;;;;;46.30;26.00;;;4.90;99.90;;;;;;5024895;28;20666;-67
2020/12/13 00:19:01;;;;;;;46.37;25.60;;;4.90;99.90;;;;;;5024754;28;20757;-67
2020/12/13 00:21:50;;;;;;;45.73;26.20;;;4.80;99.90;;;;;;5021545;28;21040;-67
2020/12/13 00:24:36;;;;;;;51.30;28.07;;;4.80;99.90;;;;;;5020611;28;20603;-67
2020/12/13 00:27:23;;;;;;;45.83;25.43;;;4.90;99.90;;;;;;5026107;28;20658;-67
2020/12/13 00:30:08;;;;;;;44.97;25.03;;;4.90;99.90;;;;;;5027769;28;20716;-67
2020/12/13 00:32:52;;;;;;;45.20;26.23;;;4.90;99.90;;;;;;4999535;28;20640;-68
2020/12/13 00:35:36;;;;;;;46.23;25.20;;;4.90;99.90;;;;;;5005574;28;20845;-67
2020/12/13 00:38:24;;;;;;;46.63;25.10;;;4.90;99.90;;;;;;5002665;28;20671;-67
2020/12/13 00:41:10;;;;;;;42.43;24.90;;;4.90;99.90;;;;;;4998819;28;21216;-68
2020/12/13 00:43:54;;;;;;;44.33;24.27;;;4.80;99.90;;;;;;5025357;28;20599;-67
2020/12/13 00:46:39;;;;;;;41.50;23.63;;;4.80;99.90;;;;;;5019658;28;20663;-68
2020/12/13 00:49:24;;;;;;;35.80;22.67;;;4.80;99.90;;;;;;5009596;28;20626;-68
2020/12/13 00:52:08;;;;;;;39.13;23.20;;;4.80;99.90;;;;;;5017658;28;20650;-68
2020/12/13 00:54:53;;;;;;;43.30;23.57;;;4.80;99.90;;;;;;5010972;28;20675;-67
2020/12/13 00:57:44;;;;;;;36.90;22.97;;;4.80;99.90;;;;;;5027013;28;20634;-67
2020/12/13 01:00:28;;;;;;;45.30;25.63;;;4.80;99.90;;;;;;5021164;28;20627;-67
2020/12/13 01:03:13;;;;;;;39.53;22.90;;;4.70;99.90;;;;;;5037709;28;20627;-67
2020/12/13 01:05:57;;;;;;;45.07;24.50;;;4.70;99.90;;;;;;5027614;28;20544;-67
2020/12/13 01:08:42;;;;;;;43.87;24.00;;;4.70;99.90;;;;;;5028987;28;20535;-68
2020/12/13 01:11:31;;;;;;;46.27;23.53;;;4.70;99.90;;;;;;5011530;28;20646;-68
2020/12/13 01:14:15;;;;;;;40.13;25.17;;;4.70;99.90;;;;;;5013981;28;20662;-67
2020/12/13 01:16:59;;;;;;;40.30;22.90;;;4.80;99.90;;;;;;5024103;28;20733;-67
2020/12/13 01:19:47;;;;;;;46.00;23.27;;;4.80;99.90;;;;;;5024720;28;20705;-67
2020/12/13 01:22:36;;;;;;;42.83;24.33;;;4.70;99.90;;;;;;5033954;28;20642;-68
2020/12/13 01:25:20;;;;;;;39.03;21.70;;;4.70;99.90;;;;;;5045459;28;20647;-67
2020/12/13 01:28:05;;;;;;;45.27;25.00;;;4.60;99.90;;;;;;5024629;28;21256;-67
2020/12/13 01:30:49;;;;;;;47.20;25.57;;;4.70;99.90;;;;;;5017115;28;20772;-68
2020/12/13 01:33:34;;;;;;;48.97;25.30;;;4.60;99.90;;;;;;5019061;28;20655;-67
2020/12/13 01:36:21;;;;;;;46.27;25.60;;;4.70;99.90;;;;;;5029316;28;20588;-68
2020/12/13 01:39:06;;;;;;;44.70;23.10;;;4.60;99.90;;;;;;5035410;28;20702;-68
2020/12/13 01:41:56;;;;;;;46.87;24.03;;;4.70;99.90;;;;;;5019233;28;20647;-67
2020/12/13 01:44:41;;;;;;;48.47;25.30;;;4.70;99.90;;;;;;5025547;28;20582;-68
2020/12/13 01:47:29;;;;;;;49.87;26.53;;;4.70;99.90;;;;;;5013545;28;20675;-67
2020/12/13 01:50:28;;;;;;;40.20;22.40;;;4.70;99.90;;;;;;5019083;28;20742;-67
2020/12/13 01:53:18;;;;;;;41.73;23.57;;;4.80;99.90;;;;;;5015001;28;20800;-67
2020/12/13 01:56:03;;;;;;;44.10;25.60;;;4.80;99.90;;;;;;5020688;28;20720;-66
2020/12/13 01:58:52;;;;;;;40.13;23.50;;;4.90;99.90;;;;;;5028852;28;20616;-67
2020/12/13 02:01:39;;;;;;;42.67;24.43;;;4.90;99.90;;;;;;5005281;28;20645;-66
2020/12/13 02:04:23;;;;;;;41.17;22.13;;;4.90;99.90;;;;;;5019091;28;20619;-67
2020/12/13 02:07:10;;;;;;;43.03;24.40;;;4.80;99.90;;;;;;5033061;28;20794;-67
2020/12/13 02:09:55;;;;;;;38.77;23.00;;;4.90;99.90;;;;;;5019034;28;20650;-67
2020/12/13 02:12:39;;;;;;;41.77;23.30;;;4.90;99.90;;;;;;5011717;28;20666;-67
2020/12/13 02:15:24;;;;;;;44.43;23.10;;;4.90;99.90;;;;;;5025503;28;20657;-66
2020/12/13 02:18:09;;;;;;;39.60;22.60;;;4.80;99.90;;;;;;5020294;28;20674;-67
2020/12/13 02:20:56;;;;;;;41.80;22.37;;;4.80;99.90;;;;;;5027171;28;20649;-67
2020/12/13 02:23:41;;;;;;;42.60;22.50;;;4.70;99.90;;;;;;5051147;28;20626;-67
2020/12/13 02:26:26;;;;;;;42.20;23.53;;;4.80;99.90;;;;;;5021022;28;20666;-66
2020/12/13 02:29:11;;;;;;;40.60;22.40;;;4.80;99.90;;;;;;5049406;28;20594;-67
2020/12/13 02:31:55;;;;;;;42.10;23.17;;;4.80;99.90;;;;;;5020351;28;20655;-66
2020/12/13 02:34:40;;;;;;;43.67;22.50;;;4.90;99.90;;;;;;5025301;28;20747;-67
2020/12/13 02:37:26;;;;;;;41.20;23.10;;;4.80;99.90;;;;;;5024280;28;20682;-67
2020/12/13 02:40:14;;;;;;;42.30;23.00;;;4.80;99.90;;;;;;5020756;28;20623;-68
2020/12/13 02:42:59;;;;;;;44.47;23.70;;;4.80;99.90;;;;;;5019294;28;20737;-67
2020/12/13 02:45:43;;;;;;;44.10;23.40;;;4.80;99.90;;;;;;5023101;28;21498;-68
2020/12/13 02:48:27;;;;;;;41.50;23.97;;;4.90;99.90;;;;;;5031534;28;20959;-67
2020/12/13 02:51:12;;;;;;;40.33;22.20;;;4.90;99.90;;;;;;5013213;28;20642;-67
2020/12/13 02:53:56;;;;;;;40.83;22.07;;;5.00;99.90;;;;;;5022231;28;20764;-67
2020/12/13 02:56:42;;;;;;;40.50;22.57;;;5.00;99.90;;;;;;5023106;28;20701;-68
2020/12/13 02:59:30;;;;;;;41.20;21.77;;;5.00;99.90;;;;;;5025495;28;21161;-67
2020/12/13 03:02:14;;;;;;;37.97;21.70;;;5.00;99.90;;;;;;5028850;28;21130;-67
2020/12/13 03:04:59;;;;;;;41.43;22.40;;;5.10;99.90;;;;;;4997685;28;20986;-68
2020/12/13 03:07:43;;;;;;;41.70;22.60;;;5.10;99.90;;;;;;5022453;28;20659;-67
2020/12/13 03:10:28;;;;;;;42.33;22.10;;;5.10;99.90;;;;;;5025535;28;20669;-66
2020/12/13 03:13:12;;;;;;;44.13;24.60;;;5.10;99.90;;;;;;5035325;28;21096;-67
2020/12/13 03:15:57;;;;;;;39.73;22.40;;;5.10;99.90;;;;;;5022456;28;20630;-68
2020/12/13 03:18:41;;;;;;;43.03;23.60;;;5.10;99.90;;;;;;5027183;28;20697;-68
2020/12/13 03:21:26;;;;;;;40.77;21.60;;;5.00;99.90;;;;;;5014822;28;20734;-68
2020/12/13 03:24:11;;;;;;;43.10;24.10;;;5.00;99.90;;;;;;5028700;28;20763;-68
2020/12/13 03:26:55;;;;;;;37.87;22.27;;;5.00;99.90;;;;;;5030520;28;20667;-68
2020/12/13 03:29:40;;;;;;;39.83;22.10;;;5.10;99.90;;;;;;5022696;28;20733;-68
2020/12/13 03:32:25;;;;;;;46.27;23.47;;;5.10;99.90;;;;;;5014688;28;20699;-68
2020/12/13 03:35:09;;;;;;;41.13;21.83;;;5.10;99.90;;;;;;5012879;28;20729;-68
2020/12/13 03:37:53;;;;;;;42.60;23.10;;;5.10;99.90;;;;;;5016786;28;20661;-68
2020/12/13 03:40:38;;;;;;;43.07;24.27;;;5.00;99.90;;;;;;5019058;28;20716;-69
2020/12/13 03:43:23;;;;;;;36.40;20.93;;;5.00;99.90;;;;;;5025122;28;20627;-68
2020/12/13 03:46:07;;;;;;;43.47;22.50;;;5.00;99.90;;;;;;5020619;28;21149;-68
2020/12/13 03:48:52;;;;;;;44.23;23.60;;;5.00;99.90;;;;;;5040600;28;20629;-68
2020/12/13 03:51:38;;;;;;;43.50;23.40;;;5.10;99.90;;;;;;5023886;28;20737;-68
2020/12/13 03:54:23;;;;;;;43.90;23.50;;;5.10;99.90;;;;;;5018232;28;20611;-68
2020/12/13 03:57:07;;;;;;;39.20;21.97;;;5.00;99.90;;;;;;5026289;28;20655;-68
2020/12/13 03:59:52;;;;;;;43.03;22.87;;;5.00;99.90;;;;;;5013253;28;21003;-68
2020/12/13 04:02:40;;;;;;;46.40;23.97;;;4.90;99.90;;;;;;5019672;28;20990;-68
2020/12/13 04:05:25;;;;;;;43.73;23.30;;;4.90;99.90;;;;;;4996280;28;20624;-68
2020/12/13 04:08:10;;;;;;;39.67;22.50;;;4.90;99.90;;;;;;5026089;28;20654;-68
2020/12/13 04:10:55;;;;;;;44.03;23.90;;;4.90;99.90;;;;;;5016332;28;20740;-67
2020/12/13 04:13:39;;;;;;;35.23;22.23;;;4.90;99.90;;;;;;5035989;28;20693;-67
2020/12/13 04:16:24;;;;;;;44.73;23.10;;;4.80;99.90;;;;;;5045408;28;21072;-68
2020/12/13 04:19:08;;;;;;;42.60;22.30;;;4.80;99.90;;;;;;5041881;28;20650;-68
2020/12/13 04:21:52;;;;;;;40.90;22.07;;;4.90;99.90;;;;;;5023986;28;20632;-67
2020/12/13 04:24:37;;;;;;;44.73;22.83;;;4.90;99.90;;;;;;5023372;28;20604;-67
2020/12/13 04:27:21;;;;;;;38.07;22.40;;;4.80;99.90;;;;;;5025185;28;20705;-67
2020/12/13 04:30:06;;;;;;;39.83;23.40;;;4.90;99.90;;;;;;5022916;28;20599;-67
2020/12/13 04:32:51;;;;;;;43.23;24.50;;;4.90;99.90;;;;;;5021534;28;20630;-67
2020/12/13 04:35:35;;;;;;;39.43;22.03;;;4.90;99.90;;;;;;5024503;28;21197;-67
2020/12/13 04:38:21;;;;;;;38.97;23.50;;;4.90;99.90;;;;;;5019653;28;20679;-67
2020/12/13 04:41:05;;;;;;;41.17;22.63;;;4.90;99.90;;;;;;5031597;28;20635;-68
2020/12/13 04:43:50;;;;;;;37.90;22.03;;;4.90;99.90;;;;;;5023236;28;20606;-68
2020/12/13 04:46:39;;;;;;;39.63;22.40;;;4.90;99.90;;;;;;5027204;28;20757;-68
2020/12/13 04:49:26;;;;;;;37.80;20.73;;;5.00;99.90;;;;;;5011985;28;20730;-68
2020/12/13 04:52:11;;;;;;;38.30;22.07;;;5.00;99.90;;;;;;5017903;28;20999;-68
2020/12/13 04:54:56;;;;;;;38.43;22.10;;;5.00;99.90;;;;;;5016852;28;20682;-68
2020/12/13 04:57:41;;;;;;;39.60;22.70;;;5.00;99.90;;;;;;5023047;28;20823;-68
2020/12/13 05:00:29;;;;;;;44.30;23.60;;;5.00;99.90;;;;;;5004582;28;21165;-68
2020/12/13 05:03:15;;;;;;;40.57;22.03;;;5.00;99.90;;;;;;5025320;28;20718;-68
2020/12/13 05:06:01;;;;;;;39.83;22.17;;;5.00;99.90;;;;;;5016822;28;20630;-67
2020/12/13 05:08:49;;;;;;;41.80;24.33;;;5.00;99.90;;;;;;5018359;28;20610;-67
2020/12/13 05:11:37;;;;;;;44.00;23.37;;;5.00;99.90;;;;;;5016630;28;20714;-67
2020/12/13 05:14:22;;;;;;;44.73;23.93;;;5.00;99.90;;;;;;5022201;28;20946;-67
2020/12/13 05:17:12;;;;;;;40.43;23.03;;;5.00;99.90;;;;;;5018773;28;20740;-67
2020/12/13 05:19:57;;;;;;;40.30;23.10;;;5.00;99.90;;;;;;5028321;28;20766;-68
2020/12/13 05:22:58;;;;;;;42.37;24.30;;;5.00;99.90;;;;;;5023084;28;20650;-67
2020/12/13 05:25:42;;;;;;;44.93;23.30;;;5.00;99.90;;;;;;5004923;28;20627;-67
2020/12/13 05:28:27;;;;;;;44.23;23.20;;;5.00;99.90;;;;;;5028055;28;20975;-67
2020/12/13 05:31:14;;;;;;;41.13;23.67;;;5.00;99.90;;;;;;5022968;28;20722;-67
2020/12/13 05:36:44;;;;;;;40.23;22.20;;;5.00;99.90;;;;;;5023100;28;20662;-67
2020/12/13 05:39:36;;;;;;;42.23;22.50;;;5.00;99.90;;;;;;5028801;28;20651;-67
2020/12/13 05:42:39;;;;;;;40.70;23.43;;;5.00;99.90;;;;;;5021332;28;20634;-68
2020/12/13 05:45:44;;;;;;;46.00;23.20;;;5.00;99.90;;;;;;5015282;28;21194;-68
2020/12/13 05:49:03;;;;;;;38.07;22.47;;;5.00;99.90;;;;;;5029317;28;20725;-66
2020/12/13 05:51:41;;;;;;;43.93;22.97;;;5.00;99.90;;;;;;5023142;28;20852;-66
2020/12/13 05:54:27;;;;;;;43.13;23.50;;;4.90;99.90;;;;;;5038306;28;20591;-66
2020/12/13 05:57:13;;;;;;;43.03;23.70;;;4.90;99.90;;;;;;5017323;28;20655;-67
2020/12/13 05:59:57;;;;;;;41.03;23.23;;;4.90;99.90;;;;;;5016945;28;21106;-65
2020/12/13 06:02:45;;;;;;;44.50;23.83;;;4.90;99.90;;;;;;5035196;28;20724;-65
2020/12/13 06:05:35;;;;;;;42.07;22.30;;;4.90;99.90;;;;;;5023195;28;20626;-65
2020/12/13 06:08:22;;;;;;;42.03;22.13;;;4.90;99.90;;;;;;5025827;28;20653;-67
2020/12/13 06:11:09;;;;;;;41.90;22.63;;;4.90;99.90;;;;;;5021667;28;20722;-68
2020/12/13 06:13:54;;;;;;;42.33;23.00;;;4.90;99.90;;;;;;5030869;28;20594;-64
2020/12/13 06:16:39;;;;;;;39.00;22.73;;;4.80;99.90;;;;;;5027923;28;21343;-67
2020/12/13 06:19:31;;;;;;;47.20;24.50;;;4.90;99.90;;;;;;5027769;28;21108;-66
2020/12/13 06:22:20;;;;;;;43.87;24.70;;;4.90;99.90;;;;;;5033470;28;21007;-65
2020/12/13 06:25:04;;;;;;;44.10;23.20;;;4.80;99.90;;;;;;5030071;28;20627;-65
2020/12/13 06:27:50;;;;;;;41.10;24.30;;;4.80;99.90;;;;;;5030680;28;20645;-65
2020/12/13 06:30:38;;;;;;;52.77;25.27;;;4.80;99.90;;;;;;5024220;28;20629;-65
2020/12/13 06:33:23;;;;;;;46.60;24.83;;;4.80;99.90;;;;;;5031039;28;20651;-65
2020/12/13 06:36:08;;;;;;;44.67;24.53;;;4.80;99.90;;;;;;5033002;28;20749;-65
2020/12/13 06:38:56;;;;;;;48.43;24.80;;;4.80;99.90;;;;;;5044960;28;20653;-65
2020/12/13 06:41:47;;;;;;;49.07;24.27;;;4.80;99.90;;;;;;5030874;28;21421;-66
2020/12/13 06:44:33;;;;;;;55.17;24.90;;;4.80;99.90;;;;;;5039481;28;20666;-65
2020/12/13 06:47:24;;;;;;;44.53;23.00;;;4.70;99.90;;;;;;5023809;28;20654;-66
2020/12/13 06:50:24;;;;;;;49.23;25.07;;;4.70;99.90;;;;;;5028371;28;20595;-66
2020/12/13 06:53:15;;;;;;;47.60;24.90;;;4.70;99.90;;;;;;5022168;28;20646;-65
2020/12/13 06:56:13;;;;;;;44.93;24.90;;;4.70;99.90;;;;;;5027876;28;20708;-66
2020/12/13 06:59:00;;;;;;;45.10;24.63;;;4.70;99.90;;;;;;5013196;28;20795;-66
2020/12/13 07:01:46;;;;;;;47.90;24.80;;;4.80;99.90;;;;;;5016015;28;21008;-65
2020/12/13 07:04:36;;;;;;;48.50;24.33;;;4.80;99.90;;;;;;4999807;28;20586;-66
2020/12/13 07:07:25;;;;;;;55.97;27.10;;;4.80;99.90;;;;;;5007324;28;20674;-65
2020/12/13 07:10:09;;;;;;;44.80;23.90;;;4.70;99.90;;;;;;5038373;28;20579;-65
2020/12/13 07:12:56;;;;;;;52.00;26.23;;;4.70;99.90;;;;;;5039899;28;21063;-66
2020/12/13 07:15:52;;;;;;;50.97;25.90;;;4.80;99.90;;;;;;5021319;28;20626;-66
2020/12/13 07:18:42;;;;;;;44.80;25.83;;;4.70;99.90;;;;;;5019420;28;20661;-65
2020/12/13 07:21:26;;;;;;;48.83;25.33;;;4.60;99.90;;;;;;5015686;28;20634;-66
2020/12/13 07:24:11;;;;;;;45.07;24.77;;;4.70;99.90;;;;;;5028650;28;20703;-68
2020/12/13 07:26:57;;;;;;;47.90;26.37;;;4.60;99.90;;;;;;5018850;28;21859;-65
2020/12/13 07:29:41;;;;;;;51.73;26.27;;;4.60;99.90;;;;;;5027191;28;20636;-66
2020/12/13 07:32:25;;;;;;;49.60;25.47;;;4.60;99.90;;;;;;5024816;28;20698;-68
2020/12/13 07:35:15;;;;;;;45.97;25.40;;;4.70;99.90;;;;;;5022273;28;20754;-66
2020/12/13 07:38:00;;;;;;;48.03;26.30;;;4.80;99.90;;;;;;5012745;28;20785;-66
2020/12/13 07:40:48;;;;;;;48.17;26.10;;;4.70;99.90;;;;;;5020203;28;20930;-66
2020/12/13 07:43:33;;;;;;;52.43;27.13;;;4.70;99.90;;;;;;5021860;28;21305;-66
2020/12/13 07:46:17;;;;;;;41.87;24.07;;;4.80;99.90;;;;;;5023771;28;20593;-65
2020/12/13 07:49:07;;;;;;;46.47;25.20;;;4.80;99.90;;;;;;5008940;28;20606;-66
2020/12/13 07:51:53;;;;;;;48.07;25.17;;;4.70;99.90;;;;;;5019421;28;20743;-65
2020/12/13 07:54:39;;;;;;;48.37;25.77;;;4.80;99.90;;;;;;5021144;28;21168;-66
2020/12/13 07:57:23;;;;;;;45.83;25.77;;;4.80;99.90;;;;;;5023418;28;20651;-67
2020/12/13 08:00:09;;;;;;;45.53;26.07;;;4.80;99.90;;;;;;5015007;28;20671;-67
2020/12/13 08:02:57;;;;;;;52.47;25.60;;;4.80;99.90;;;;;;5020322;28;21180;-67
2020/12/13 08:05:44;;;;;;;49.30;26.37;;;4.80;99.90;;;;;;5046487;28;20602;-66
2020/12/13 08:08:41;;;;;;;45.97;25.90;;;4.80;99.90;;;;;;5033065;28;20622;-67
2020/12/13 08:11:26;;;;;;;48.30;25.13;;;4.90;99.90;;;;;;5018030;28;20729;-66
2020/12/13 08:14:11;;;;;;;46.13;24.53;;;4.90;99.90;;;;;;5025329;28;20963;-67
2020/12/13 08:16:56;;;;;;;47.27;26.87;;;4.90;99.90;;;;;;5029395;28;20720;-66
2020/12/13 08:19:42;;;;;;;52.30;27.53;;;4.90;99.90;;;;;;5018558;28;20683;-67
2020/12/13 08:22:28;;;;;;;50.93;26.23;;;4.90;99.90;;;;;;5013010;28;21215;-66
2020/12/13 08:25:13;;;;;;;52.70;26.13;;;4.90;99.90;;;;;;5022450;28;20708;-73
2020/12/13 08:27:59;;;;;;;48.83;26.37;;;4.90;99.90;;;;;;5023425;28;20645;-67
2020/12/13 08:30:44;;;;;;;53.27;28.30;;;4.90;99.90;;;;;;5013587;28;20595;-67
2020/12/13 08:33:29;;;;;;;51.90;27.50;;;5.00;99.90;;;;;;5027816;28;20591;-68
2020/12/13 08:36:21;;;;;;;49.67;27.77;;;5.00;99.90;;;;;;5048051;28;20782;-67
2020/12/13 08:39:11;;;;;;;49.10;26.00;;;5.00;99.90;;;;;;5040485;23;20704;-68
2020/12/13 08:41:56;;;;;;;54.03;27.40;;;5.00;99.90;;;;;;4998445;28;20784;-68
2020/12/13 08:44:41;;;;;;;49.00;26.10;;;5.00;99.90;;;;;;4982102;28;20679;-68
2020/12/13 08:47:31;;;;;;;53.20;26.80;;;5.00;99.90;;;;;;4995417;28;20592;-68
2020/12/13 08:50:19;;;;;;;50.17;27.43;;;4.90;99.90;;;;;;4987823;28;20648;-78
2020/12/13 08:53:18;;;;;;;47.67;26.47;;;5.00;99.90;;;;;;4981005;28;20727;-68
2020/12/13 08:56:13;;;;;;;50.33;26.77;;;5.00;99.90;;;;;;4995072;28;20656;-66
2020/12/13 08:58:58;;;;;;;51.77;28.33;;;5.00;99.90;;;;;;4985623;28;20661;-67
2020/12/13 09:01:52;;;;;;;53.10;28.63;;;5.10;99.90;;;;;;4969283;28;20669;-68
2020/12/13 09:04:37;;;;;;;52.87;28.87;;;5.00;99.90;;;;;;4973210;28;20622;-77
2020/12/13 09:07:22;;;;;;;48.37;26.57;;;5.00;99.90;;;;;;4961710;28;20597;-74
2020/12/13 09:10:13;;;;;;;47.10;26.30;;;5.10;99.90;;;;;;4957745;28;20661;-75
2020/12/13 09:13:06;;;;;;;51.30;26.80;;;5.00;99.90;;;;;;4965510;28;20677;-75
2020/12/13 09:15:50;;;;;;;51.13;26.67;;;5.10;99.90;;;;;;4964449;28;20669;-67
2020/12/13 09:18:35;;;;;;;52.47;28.03;;;5.10;99.90;;;;;;4962671;28;20660;-68
2020/12/13 09:21:20;;;;;;;46.07;26.57;;;5.10;99.90;;;;;;4972958;28;20703;-69
2020/12/13 09:24:04;;;;;;;44.90;25.17;;;5.10;99.90;;;;;;4985943;28;20640;-69
2020/12/13 09:27:06;;;;;;;48.93;25.93;;;5.10;99.90;;;;;;4976335;28;20628;-69
2020/12/13 09:29:52;;;;;;;46.83;25.43;;;5.10;99.90;;;;;;4982698;28;21232;-69
2020/12/13 09:32:36;;;;;;;47.73;27.23;;;5.10;99.90;;;;;;4966758;28;20723;-69
2020/12/13 09:35:21;;;;;;;43.73;25.13;;;5.10;99.90;;;;;;4964261;28;20585;-68
2020/12/13 09:38:08;;;;;;;52.43;26.80;;;5.10;99.90;;;;;;4957217;28;20949;-68
2020/12/13 09:40:53;;;;;;;48.57;26.30;;;5.10;99.90;;;;;;4965291;28;21228;-68
2020/12/13 09:43:37;;;;;;;51.23;26.00;;;5.10;99.90;;;;;;4982679;28;21398;-69
2020/12/13 09:46:22;;;;;;;51.07;27.43;;;5.10;99.90;;;;;;4958669;28;20653;-69
2020/12/13 09:49:06;;;;;;;47.03;24.90;;;5.10;99.90;;;;;;4976950;28;21230;-69
2020/12/13 09:52:02;;;;;;;45.60;26.60;;;5.10;99.90;;;;;;4967830;28;20661;-69
2020/12/13 09:54:47;;;;;;;50.40;26.47;;;5.10;99.90;;;;;;4968451;28;21084;-69
2020/12/13 09:57:32;;;;;;;48.77;26.53;;;5.00;99.90;;;;;;4962109;28;20637;-69
2020/12/13 10:00:16;;;;;;;45.90;26.40;;;5.10;99.90;;;;;;4979000;28;21253;-69
2020/12/13 10:03:01;;;;;;;50.23;26.83;;;5.10;99.90;;;;;;4996724;28;20650;-69
2020/12/13 10:06:31;;;;;;;48.53;26.30;;;5.10;99.90;;;;;;4990243;28;20612;-68
2020/12/13 10:09:06;;;;;;;44.40;24.30;;;5.20;99.90;;;;;;4992664;28;20788;-69
2020/12/13 10:11:51;;;;;;;56.47;27.23;;;5.20;99.90;;;;;;4968462;28;20656;-69
2020/12/13 10:14:35;;;;;;;48.23;25.60;;;5.10;99.90;;;;;;4971423;28;20661;-69
2020/12/13 10:17:20;;;;;;;52.47;27.10;;;5.20;99.90;;;;;;4983831;28;20641;-69
2020/12/13 10:20:07;;;;;;;50.70;26.57;;;5.20;99.90;;;;;;4965345;28;20665;-69
2020/12/13 10:22:51;;;;;;;47.17;24.93;;;5.20;99.90;;;;;;4968155;28;20660;-69
2020/12/13 10:25:35;;;;;;;50.00;26.27;;;5.20;99.90;;;;;;4984723;28;20629;-68
2020/12/13 10:28:20;;;;;;;50.27;25.97;;;5.20;99.90;;;;;;4969299;28;20648;-69
2020/12/13 10:31:04;;;;;;;53.87;27.07;;;5.30;99.90;;;;;;4978114;28;20653;-68
2020/12/13 10:33:49;;;;;;;54.97;27.63;;;5.20;99.90;;;;;;4967986;28;20664;-69
2020/12/13 10:36:35;;;;;;;49.60;26.97;;;5.30;99.90;;;;;;4965635;28;20653;-69
2020/12/13 10:39:22;;;;;;;50.30;26.00;;;5.30;99.90;;;;;;4969708;28;20672;-68
2020/12/13 10:42:08;;;;;;;54.50;27.63;;;5.30;99.90;;;;;;4963252;28;20760;-69
2020/12/13 10:44:55;;;;;;;49.47;26.43;;;5.20;99.90;;;;;;4969781;28;21289;-69
2020/12/13 10:47:40;;;;;;;50.20;27.93;;;5.20;99.90;;;;;;4971649;28;20676;-69
2020/12/13 10:50:24;;;;;;;64.20;29.30;;;5.20;99.90;;;;;;4969712;28;21484;-69
2020/12/13 10:53:09;;;;;;;62.50;29.23;;;5.20;99.90;;;;;;4990080;28;20648;-69
2020/12/13 10:55:54;;;;;;;52.03;28.20;;;5.20;99.90;;;;;;5009101;28;20686;-68
2020/12/13 10:58:40;;;;;;;57.17;28.90;;;5.20;99.90;;;;;;4985751;28;21226;-68
2020/12/13 11:01:24;;;;;;;50.70;27.90;;;5.20;99.90;;;;;;4975456;28;20639;-69
2020/12/13 11:04:09;;;;;;;58.47;29.20;;;5.20;99.90;;;;;;4985463;28;20615;-69
2020/12/13 11:06:56;;;;;;;55.90;27.73;;;5.20;99.90;;;;;;4980814;28;20660;-69
2020/12/13 11:09:41;;;;;;;52.13;28.43;;;5.20;99.90;;;;;;4985138;28;20655;-69
2020/12/13 11:12:25;;;;;;;53.60;26.33;;;5.30;99.90;;;;;;4984331;28;20784;-69
2020/12/13 11:15:10;;;;;;;56.70;29.10;;;5.20;99.90;;;;;;5001805;28;20601;-70
2020/12/13 11:17:54;;;;;;;51.47;27.90;;;5.20;99.90;;;;;;4976305;28;20671;-69
2020/12/13 11:20:39;;;;;;;58.37;30.27;;;5.20;99.90;;;;;;4988810;28;20946;-68
2020/12/13 11:23:24;;;;;;;55.53;27.50;;;5.30;99.90;;;;;;4983396;28;20612;-69
2020/12/13 11:26:09;;;;;;;53.93;28.40;;;5.30;99.90;;;;;;5000666;28;20954;-67
2020/12/13 11:28:53;;;;;;;59.20;28.27;;;5.30;99.90;;;;;;4997716;28;20774;-69
2020/12/13 11:31:38;;;;;;;55.03;29.13;;;5.30;99.90;;;;;;4993426;28;20665;-68
2020/12/13 11:34:22;;;;;;;51.93;26.90;;;5.40;99.90;;;;;;4991346;28;20592;-73
2020/12/13 11:37:07;;;;;;;53.60;27.83;;;5.40;99.90;;;;;;5001745;28;21227;-69
2020/12/13 11:39:51;;;;;;;52.37;28.67;;;5.40;99.90;;;;;;4982893;28;20664;-70
2020/12/13 11:42:36;;;;;;;57.40;29.27;;;5.40;99.90;;;;;;4984191;28;20742;-68
2020/12/13 11:45:21;;;;;;;55.37;29.60;;;5.40;99.90;;;;;;4982954;28;21171;-69
2020/12/13 11:48:06;;;;;;;56.50;27.57;;;5.40;99.90;;;;;;4989564;28;20979;-69
2020/12/13 11:50:52;;;;;;;52.17;26.73;;;5.40;99.90;;;;;;4990699;28;20905;-69
2020/12/13 11:53:37;;;;;;;53.77;28.60;;;5.40;99.90;;;;;;4986547;28;21037;-69
2020/12/13 11:56:23;;;;;;;58.10;28.00;;;5.50;99.90;;;;;;4996104;28;20639;-69
2020/12/13 11:59:08;;;;;;;52.37;28.10;;;5.50;99.90;;;;;;4983692;28;20735;-69
2020/12/13 12:01:52;;;;;;;46.67;26.17;;;5.50;99.90;;;;;;4972536;28;20657;-70
2020/12/13 12:04:36;;;;;;;51.47;28.30;;;5.70;99.90;;;;;;4964561;28;20637;-69
2020/12/13 12:07:21;;;;;;;55.03;27.30;;;5.80;99.90;;;;;;4968800;28;20714;-69
2020/12/13 12:10:08;;;;;;;57.10;28.40;;;5.60;99.90;;;;;;4979911;28;20669;-68
2020/12/13 12:12:52;;;;;;;53.83;26.93;;;5.60;99.90;;;;;;4955289;28;21120;-78
2020/12/13 12:15:37;;;;;;;55.53;27.23;;;5.60;99.90;;;;;;4968312;28;20593;-72
2020/12/13 12:18:22;;;;;;;60.47;28.73;;;5.60;99.90;;;;;;4979504;28;20668;-69
2020/12/13 12:21:13;;;;;;;62.63;29.10;;;5.60;99.90;;;;;;4972413;28;20797;-69
2020/12/13 12:23:57;;;;;;;60.50;29.60;;;5.60;99.90;;;;;;4967365;28;20744;-68
2020/12/13 12:26:42;;;;;;;55.03;28.30;;;5.60;99.90;;;;;;4967493;28;21191;-68
2020/12/13 12:29:27;;;;;;;50.77;27.70;;;5.60;99.90;;;;;;4956129;28;21360;-68
2020/12/13 12:32:12;;;;;;;53.13;29.17;;;5.70;99.90;;;;;;4971053;28;20697;-68
2020/12/13 12:34:57;;;;;;;56.27;29.97;;;5.70;99.90;;;;;;4985824;28;20588;-69
2020/12/13 12:37:42;;;;;;;56.70;28.73;;;5.70;99.90;;;;;;4974948;28;22415;-68
2020/12/13 12:40:26;;;;;;;65.10;28.77;;;5.70;99.90;;;;;;4978320;28;20695;-68
2020/12/13 12:43:11;;;;;;;53.70;28.20;;;5.70;99.90;;;;;;4958051;28;20630;-68
2020/12/13 12:45:55;;;;;;;55.40;27.13;;;5.70;99.90;;;;;;4965969;28;21075;-70
2020/12/13 12:48:40;;;;;;;56.00;27.53;;;5.80;99.90;;;;;;4968265;28;21211;-69
2020/12/13 12:51:28;;;;;;;50.03;27.23;;;5.90;99.90;;;;;;4965234;28;20728;-67
2020/12/13 12:54:12;;;;;;;54.00;27.80;;;5.80;99.90;;;;;;4985789;28;20596;-67
2020/12/13 12:56:57;;;;;;;61.73;30.60;;;5.80;99.90;;;;;;4985275;28;20633;-67
2020/12/13 13:02:33;;;;;;;67.87;30.30;;;5.90;99.90;;;;;;4976545;28;21109;-71
2020/12/13 13:05:26;;;;;;;49.20;26.20;;;5.90;99.90;;;;;;4993359;28;20593;-67
2020/12/13 13:08:16;;;;;;;51.50;27.60;;;6.00;99.90;;;;;;4982973;28;20593;-67
2020/12/13 13:11:10;;;;;;;52.40;29.10;;;5.90;99.90;;;;;;4983874;28;21238;-68
2020/12/13 13:13:55;;;;;;;55.20;28.43;;;5.90;99.90;;;;;;4989018;28;20755;-68
2020/12/13 13:16:40;;;;;;;53.40;27.53;;;5.90;99.90;;;;;;4982504;28;21007;-68
2020/12/13 13:19:24;;;;;;;53.13;27.33;;;5.90;99.90;;;;;;4988883;28;20664;-68
2020/12/13 13:22:09;;;;;;;56.10;29.10;;;5.90;99.90;;;;;;4981076;28;20644;-68
2020/12/13 13:24:53;;;;;;;53.27;28.87;;;6.00;99.90;;;;;;4987606;28;20615;-68
2020/12/13 13:27:38;;;;;;;59.27;29.00;;;6.00;99.90;;;;;;4984111;28;20600;-69
2020/12/13 13:30:22;;;;;;;56.70;28.03;;;5.90;99.90;;;;;;4990552;28;21356;-68
2020/12/13 13:33:07;;;;;;;53.93;31.00;;;5.90;99.90;;;;;;4981920;28;20688;-69
2020/12/13 13:35:51;;;;;;;55.70;28.93;;;6.10;99.90;;;;;;4982870;28;20589;-68
2020/12/13 13:38:36;;;;;;;55.77;28.40;;;6.10;99.90;;;;;;4996486;28;20704;-68
2020/12/13 13:41:34;;;;;;;53.87;28.53;;;6.10;99.90;;;;;;4983569;28;20681;-70
2020/12/13 13:44:24;;;;;;;57.27;30.57;;;6.20;99.90;;;;;;5007100;28;20588;-69
2020/12/13 13:50:12;;;;;;;54.90;30.20;;;6.00;99.90;;;;;;4992369;28;20671;-68
2020/12/13 13:52:57;;;;;;;55.43;29.67;;;6.00;99.90;;;;;;4989521;28;20727;-67
2020/12/13 13:56:30;;;;;;;52.33;27.70;;;6.00;99.90;;;;;;4985715;28;21270;-67
2020/12/13 13:58:49;;;;;;;51.47;28.27;;;6.10;99.90;;;;;;4991517;28;20668;-67
2020/12/13 14:01:35;;;;;;;52.37;28.70;;;6.10;99.90;;;;;;4975724;28;21432;-69
2020/12/13 14:04:20;;;;;;;59.40;29.10;;;6.10;99.90;;;;;;4972336;28;21114;-70
2020/12/13 14:09:58;;;;;;;58.83;29.30;;;6.10;99.90;;;;;;4980198;28;20632;-68
2020/12/13 14:12:43;;;;;;;62.67;28.67;;;6.20;99.90;;;;;;4995656;28;20734;-67
2020/12/13 14:15:27;;;;;;;54.57;28.03;;;6.20;99.90;;;;;;4982675;28;20712;-66
2020/12/13 14:18:12;;;;;;;56.30;28.80;;;6.20;99.90;;;;;;4983080;28;20989;-68
2020/12/13 14:20:57;;;;;;;51.47;28.67;;;6.20;99.90;;;;;;4978527;28;20657;-67
2020/12/13 14:23:41;;;;;;;58.17;29.30;;;6.30;99.90;;;;;;4969925;28;20624;-67
2020/12/13 14:26:30;;;;;;;60.70;28.73;;;6.40;99.90;;;;;;4978861;28;20768;-67